Time;durP1;ratioP1;P1;durP2;ratioP2;P2;SDS_P1;SDS_P2;PMS_P1;PMS_P2;Temp;Humidity;BMP_temperature;BMP_pressure;BME280_temperature;BME280_humidity;BME280_pressure;Samples;Min_cycle;Max_cycle;Signal;HPM_P1;HPM_P2
2022/02/05 00:01:52;;;;;;;;;;;;;;;;;;5018527;28;20171;-60
2022/02/05 00:04:18;;;;;;;3.55;3.25;;;;;;;;;;5018046;28;19909;-60
2022/02/05 00:06:48;;;;;;;3.60;3.30;;;;;;;;;;5019919;28;20030;-60
2022/02/05 00:09:45;;;;;;;5.68;3.65;;;;;;;;;;5019464;28;20052;-60
2022/02/05 00:42:08;;;;;;;3.58;3.28;;;;;;;;;;5018552;28;20197;-59
2022/02/05 00:44:34;;;;;;;;;;;;;;;;;;5022224;28;20391;-59
2022/02/05 00:46:59;;;;;;;3.40;3.10;;;;;;;;;;5018085;28;19923;-59
2022/02/05 00:49:25;;;;;;;3.35;3.05;;;;;;;;;;5019099;28;20061;-59
2022/02/05 00:52:00;;;;;;;3.90;3.50;;;;;;;;;;5018128;28;20033;-59
2022/02/05 00:54:27;;;;;;;3.60;3.30;;;;;;;;;;5016504;28;20106;-59
2022/02/05 00:59:27;;;;;;;3.28;2.97;;;;;;;;;;5019224;28;20575;-59
2022/02/05 01:01:52;;;;;;;3.78;3.20;;;;;;;;;;5025565;28;20041;-60
2022/02/05 01:04:18;;;;;;;3.55;3.25;;;;;;;;;;5020608;28;20037;-61
2022/02/05 01:06:44;;;;;;;3.72;3.42;;;;;;;;;;5019311;28;20183;-59
2022/02/05 01:09:20;;;;;;;3.38;3.08;;;;;;;;;;5018547;28;20037;-58
2022/02/05 01:11:46;;;;;;;5.25;3.75;;;;;;;;;;5017242;28;20033;-60
2022/02/05 01:14:15;;;;;;;3.60;3.30;;;;;;;;;;5025124;28;20498;-59
2022/02/05 01:17:29;;;;;;;3.33;3.03;;;;;;;;;;5018490;28;20195;-58
2022/02/05 01:21:57;;;;;;;3.17;2.88;;;;;;;;;;5019286;28;20038;-60
2022/02/05 01:24:24;;;;;;;3.63;3.33;;;;;;;;;;5016541;28;20037;-60
2022/02/05 01:27:00;;;;;;;3.10;2.80;;;;;;;;;;5020951;28;20029;-60
2022/02/05 01:29:47;;;;;;;3.88;3.35;;;;;;;;;;5018177;28;20524;-60
2022/02/05 01:32:19;;;;;;;3.47;3.17;;;;;;;;;;5018987;28;20030;-60
2022/02/05 01:56:22;;;;;;;4.07;3.72;;;;;;;;;;5019821;28;20021;-60
2022/02/05 02:07:04;;;;;;;3.30;3.00;;;;;;;;;;5021821;28;20111;-60
2022/02/05 02:10:00;;;;;;;3.67;3.35;;;;;;;;;;5022572;28;20046;-60
2022/02/05 02:12:36;;;;;;;3.55;3.25;;;;;;;;;;5021650;28;20128;-60
2022/02/05 02:15:11;;;;;;;4.65;3.63;;;;;;;;;;5021198;28;20026;-60
2022/02/05 02:20:27;;;;;;;3.42;3.13;;;;;;;;;;5018476;28;20127;-59
2022/02/05 02:23:08;;;;;;;3.20;2.90;;;;;;;;;;5021735;28;20045;-59
2022/02/05 02:28:24;;;;;;;3.40;3.10;;;;;;;;;;5020014;28;20037;-59
2022/02/05 02:30:56;;;;;;;3.47;3.17;;;;;;;;;;5020223;28;20108;-59
2022/02/05 02:33:32;;;;;;;3.85;3.55;;;;;;;;;;5017563;28;20029;-59
2022/02/05 02:35:58;;;;;;;3.17;2.88;;;;;;;;;;5019202;28;20029;-59
2022/02/05 02:38:34;;;;;;;4.20;3.85;;;;;;;;;;5020888;28;20072;-59
2022/02/05 02:41:05;;;;;;;4.22;3.83;;;;;;;;;;5018367;28;20056;-59
2022/02/05 02:43:32;;;;;;;;;;;;;;;;;;5022617;28;20038;-59
2022/02/05 02:45:58;;;;;;;3.38;3.08;;;;;;;;;;5018986;28;20507;-59
2022/02/05 02:48:24;;;;;;;3.42;3.13;;;;;;;;;;5020563;28;20029;-59
2022/02/05 02:59:07;;;;;;;2.90;2.60;;;;;;;;;;5019600;28;20037;-58
2022/02/05 03:01:36;;;;;;;3.25;2.90;;;;;;;;;;5020728;28;20029;-58
2022/02/05 03:04:01;;;;;;;3.90;3.60;;;;;;;;;;5020653;28;20037;-58
2022/02/05 03:06:26;;;;;;;5.47;4.40;;;;;;;;;;5019200;28;20025;-58
2022/02/05 03:08:52;;;;;;;3.42;3.10;;;;;;;;;;5018286;28;20418;-59
2022/02/05 03:11:21;;;;;;;3.65;3.35;;;;;;;;;;5020429;28;20530;-58
2022/02/05 03:13:47;;;;;;;3.50;3.20;;;;;;;;;;5017977;28;20034;-58
2022/02/05 03:16:21;;;;;;;3.30;3.00;;;;;;;;;;5017448;28;20056;-58
2022/02/05 03:19:09;;;;;;;3.95;3.55;;;;;;;;;;5018336;28;20034;-58
2022/02/05 03:21:32;;;;;;;3.42;3.13;;;;;;;;;;5019540;28;20108;-58
2022/02/05 03:23:57;;;;;;;3.10;2.80;;;;;;;;;;5016575;28;20112;-58
2022/02/05 03:26:23;;;;;;;14.18;3.97;;;;;;;;;;5019687;28;20026;-58
2022/02/05 03:28:48;;;;;;;3.33;3.03;;;;;;;;;;5020196;28;20048;-59
2022/02/05 03:31:13;;;;;;;3.30;3.00;;;;;;;;;;5018095;28;20184;-59
2022/02/05 03:33:39;;;;;;;4.57;2.97;;;;;;;;;;5022077;28;20036;-59
2022/02/05 03:36:05;;;;;;;3.10;2.80;;;;;;;;;;5018446;28;20040;-59
2022/02/05 03:38:30;;;;;;;3.58;2.95;;;;;;;;;;5016567;28;20037;-59
2022/02/05 03:40:55;;;;;;;3.22;2.90;;;;;;;;;;5017586;28;20115;-59
2022/02/05 03:43:21;;;;;;;3.92;3.53;;;;;;;;;;5017809;28;20052;-59
2022/02/05 03:45:47;;;;;;;3.67;2.88;;;;;;;;;;5017391;28;20041;-59
2022/02/05 03:48:12;;;;;;;3.13;2.83;;;;;;;;;;5016322;28;20098;-59
2022/02/05 03:50:38;;;;;;;3.05;2.75;;;;;;;;;;5013433;28;20042;-60
2022/02/05 03:53:07;;;;;;;2.92;2.63;;;;;;;;;;5017754;28;20344;-60
2022/02/05 03:55:33;;;;;;;3.20;2.90;;;;;;;;;;5017334;28;20058;-59
2022/02/05 03:57:59;;;;;;;3.00;2.70;;;;;;;;;;5015151;28;20378;-58
2022/02/05 04:00:24;;;;;;;5.00;3.42;;;;;;;;;;5014533;28;20045;-58
2022/02/05 04:02:50;;;;;;;3.05;2.75;;;;;;;;;;5015585;28;20172;-58
2022/02/05 04:05:15;;;;;;;2.97;2.60;;;;;;;;;;5017224;28;20498;-58
2022/02/05 04:07:44;;;;;;;3.40;3.10;;;;;;;;;;5017013;28;20095;-58
2022/02/05 04:10:15;;;;;;;3.30;2.95;;;;;;;;;;5016780;28;20368;-58
2022/02/05 04:18:08;;;;;;;3.10;2.80;;;;;;;;;;5016544;28;20121;-59
2022/02/05 04:20:34;;;;;;;3.03;2.72;;;;;;;;;;5017300;28;20121;-59
2022/02/05 04:22:59;;;;;;;3.55;3.25;;;;;;;;;;5015578;28;20033;-59
2022/02/05 04:25:25;;;;;;;4.18;3.78;;;;;;;;;;5018878;28;20382;-59
2022/02/05 04:27:50;;;;;;;3.72;3.20;;;;;;;;;;5015697;28;20065;-59
2022/02/05 04:30:16;;;;;;;3.55;2.95;;;;;;;;;;5015068;28;20052;-59
2022/02/05 04:32:41;;;;;;;3.08;2.78;;;;;;;;;;5017636;28;20037;-59
2022/02/05 04:35:07;;;;;;;6.20;3.65;;;;;;;;;;5016430;28;20056;-59
2022/02/05 04:37:33;;;;;;;3.22;2.92;;;;;;;;;;5015934;28;20028;-59
2022/02/05 04:40:13;;;;;;;3.50;3.20;;;;;;;;;;5010267;28;20479;-59
2022/02/05 04:42:50;;;;;;;3.47;3.17;;;;;;;;;;5015368;28;20041;-59
2022/02/05 04:50:36;;;;;;;3.03;2.72;;;;;;;;;;5015308;28;20140;-59
2022/02/05 04:53:28;;;;;;;3.60;3.30;;;;;;;;;;5019145;28;20037;-59
2022/02/05 05:08:41;;;;;;;3.15;2.85;;;;;;;;;;5015239;28;20052;-59
2022/02/05 05:11:26;;;;;;;3.23;2.73;;;;;;;;;;5015780;28;20041;-60
2022/02/05 05:20:04;;;;;;;4.03;3.47;;;;;;;;;;5019112;28;20029;-59
2022/02/05 05:22:00;;;;;;;4.38;3.97;;;;;;;;;;5016113;28;20041;-59
2022/02/05 05:24:26;;;;;;;3.22;2.92;;;;;;;;;;5021655;28;20112;-59
2022/02/05 05:26:52;;;;;;;2.95;2.65;;;;;;;;;;5022330;28;20037;-59
2022/02/05 05:29:18;;;;;;;3.60;3.20;;;;;;;;;;5018945;28;20048;-59
2022/02/05 05:31:44;;;;;;;3.17;2.88;;;;;;;;;;5018246;28;20041;-59
2022/02/05 05:34:09;;;;;;;3.00;2.70;;;;;;;;;;5018734;28;20048;-59
2022/02/05 05:36:35;;;;;;;3.72;3.17;;;;;;;;;;5026490;28;20026;-59
2022/02/05 05:39:03;;;;;;;3.08;2.78;;;;;;;;;;5013880;28;20519;-59
2022/02/05 05:41:30;;;;;;;3.33;3.03;;;;;;;;;;5014278;28;20071;-59
2022/02/05 05:44:34;;;;;;;3.00;2.70;;;;;;;;;;5019585;28;20611;-59
2022/02/05 05:47:15;;;;;;;3.20;2.90;;;;;;;;;;5015816;28;20538;-59
2022/02/05 05:52:11;;;;;;;2.90;2.60;;;;;;;;;;5018481;28;20033;-59
2022/02/05 05:54:37;;;;;;;3.13;2.83;;;;;;;;;;5018742;28;20041;-59
2022/02/05 05:57:03;;;;;;;3.10;2.80;;;;;;;;;;5019703;28;20030;-60
2022/02/05 05:59:28;;;;;;;3.20;2.90;;;;;;;;;;5016528;28;20168;-59
2022/02/05 06:01:54;;;;;;;3.50;3.15;;;;;;;;;;5020592;28;20069;-59
2022/02/05 06:04:19;;;;;;;3.50;3.20;;;;;;;;;;5016289;28;20037;-59
2022/02/05 06:06:44;;;;;;;3.95;3.55;;;;;;;;;;5019519;28;20025;-59
2022/02/05 06:09:10;;;;;;;3.47;3.17;;;;;;;;;;5023103;28;20489;-59
2022/02/05 06:11:35;;;;;;;3.85;3.33;;;;;;;;;;5018285;28;20563;-59
2022/02/05 06:14:00;;;;;;;3.78;3.42;;;;;;;;;;5016859;28;20124;-59
2022/02/05 06:16:31;;;;;;;3.40;3.10;;;;;;;;;;5017488;28;20034;-59
2022/02/05 06:18:57;;;;;;;2.92;2.63;;;;;;;;;;5018345;28;20055;-59
2022/02/05 06:21:22;;;;;;;3.00;2.70;;;;;;;;;;5024974;28;20040;-58
2022/02/05 06:23:48;;;;;;;3.97;3.17;;;;;;;;;;5018835;28;20026;-58
2022/02/05 06:26:13;;;;;;;6.15;3.30;;;;;;;;;;5016261;28;20030;-58
2022/02/05 06:28:39;;;;;;;3.50;3.20;;;;;;;;;;5017264;28;20061;-58
2022/02/05 06:31:04;;;;;;;3.17;2.88;;;;;;;;;;5017953;28;20046;-58
2022/02/05 06:33:29;;;;;;;3.42;3.00;;;;;;;;;;5020122;28;20030;-58
2022/02/05 06:35:55;;;;;;;3.20;2.90;;;;;;;;;;5018873;28;20040;-58
2022/02/05 06:38:20;;;;;;;3.85;3.08;;;;;;;;;;5017619;28;20053;-58
2022/02/05 06:40:46;;;;;;;5.65;3.60;;;;;;;;;;5015522;28;20044;-58
2022/02/05 06:43:12;;;;;;;4.22;3.17;;;;;;;;;;5013732;28;20655;-58
2022/02/05 06:45:37;;;;;;;4.30;3.63;;;;;;;;;;5015892;28;20041;-58
2022/02/05 06:48:04;;;;;;;4.75;3.75;;;;;;;;;;5014891;28;20029;-58
2022/02/05 06:50:29;;;;;;;3.83;3.42;;;;;;;;;;5017601;28;20116;-57
2022/02/05 06:52:55;;;;;;;3.58;3.28;;;;;;;;;;5015929;28;20443;-57
2022/02/05 06:55:20;;;;;;;3.63;3.33;;;;;;;;;;5015118;28;20030;-57
2022/02/05 06:57:45;;;;;;;3.70;3.10;;;;;;;;;;5012219;28;20029;-58
2022/02/05 07:00:11;;;;;;;4.22;3.70;;;;;;;;;;5015204;28;20535;-57
2022/02/05 07:02:41;;;;;;;3.28;2.97;;;;;;;;;;5014583;28;20515;-57
2022/02/05 07:05:07;;;;;;;5.07;3.83;;;;;;;;;;5017589;28;20037;-58
2022/02/05 07:07:32;;;;;;;3.72;3.42;;;;;;;;;;5012198;28;20056;-57
2022/02/05 07:09:57;;;;;;;3.97;3.67;;;;;;;;;;5011910;28;20048;-57
2022/02/05 07:12:23;;;;;;;4.25;3.80;;;;;;;;;;5018478;28;20450;-57
2022/02/05 07:17:29;;;;;;;4.80;3.28;;;;;;;;;;5014376;28;20033;-58
2022/02/05 07:22:31;;;;;;;3.17;2.78;;;;;;;;;;5016517;28;20030;-58
2022/02/05 07:29:13;;;;;;;4.18;3.22;;;;;;;;;;5012169;28;20037;-58
2022/02/05 07:30:31;;;;;;;4.03;3.63;;;;;;;;;;5012001;28;20109;-58
2022/02/05 07:32:57;;;;;;;3.70;3.13;;;;;;;;;;5019172;28;20124;-58
2022/02/05 07:35:25;;;;;;;3.05;2.75;;;;;;;;;;5017814;28;20048;-57
2022/02/05 07:37:53;;;;;;;3.33;3.03;;;;;;;;;;5014287;28;20108;-57
2022/02/05 07:40:19;;;;;;;4.88;3.65;;;;;;;;;;5016505;28;20075;-58
2022/02/05 07:42:44;;;;;;;3.05;2.75;;;;;;;;;;5012067;28;20451;-58
2022/02/05 07:45:09;;;;;;;3.28;2.80;;;;;;;;;;5017742;28;20034;-60
2022/02/05 07:47:35;;;;;;;3.88;3.38;;;;;;;;;;5016976;28;20552;-57
2022/02/05 07:50:01;;;;;;;3.67;3.38;;;;;;;;;;5013219;28;20671;-58
2022/02/05 07:52:27;;;;;;;3.95;3.55;;;;;;;;;;5015427;28;20395;-59
2022/02/05 07:54:52;;;;;;;3.35;3.05;;;;;;;;;;5016146;28;20040;-58
2022/02/05 07:57:17;;;;;;;4.18;3.33;;;;;;;;;;5017672;28;20501;-58
2022/02/05 07:59:43;;;;;;;4.30;3.30;;;;;;;;;;5015938;28;20033;-59
2022/02/05 08:02:09;;;;;;;3.65;3.20;;;;;;;;;;5013511;28;20113;-58
2022/02/05 08:04:35;;;;;;;3.53;2.92;;;;;;;;;;5015147;28;20042;-58
2022/02/05 08:07:02;;;;;;;4.45;3.40;;;;;;;;;;5017195;28;20038;-58
2022/02/05 08:09:45;;;;;;;4.32;3.92;;;;;;;;;;5017233;28;20515;-62
2022/02/05 08:12:13;;;;;;;3.78;3.42;;;;;;;;;;5018563;28;20068;-61
2022/02/05 08:14:43;;;;;;;4.75;3.88;;;;;;;;;;5018042;28;20120;-59
2022/02/05 08:17:17;;;;;;;4.10;3.30;;;;;;;;;;5012725;28;20065;-59
2022/02/05 08:19:43;;;;;;;3.55;3.25;;;;;;;;;;5012922;28;20048;-58
2022/02/05 08:22:08;;;;;;;3.45;3.15;;;;;;;;;;5016781;28;20038;-59
2022/02/05 08:24:34;;;;;;;7.18;4.10;;;;;;;;;;5016700;28;20411;-58
2022/02/05 08:26:59;;;;;;;4.32;3.92;;;;;;;;;;5014724;28;20391;-58
2022/02/05 08:29:24;;;;;;;6.28;4.30;;;;;;;;;;5016190;28;20047;-59
2022/02/05 08:31:50;;;;;;;7.05;3.55;;;;;;;;;;5015908;28;20040;-58
2022/02/05 08:34:15;;;;;;;3.90;3.50;;;;;;;;;;5015804;28;20909;-58
2022/02/05 08:36:45;;;;;;;4.18;3.78;;;;;;;;;;5014119;28;20033;-58
2022/02/05 08:39:12;;;;;;;7.30;4.00;;;;;;;;;;5014810;28;20045;-59
2022/02/05 08:41:38;;;;;;;4.20;3.83;;;;;;;;;;5017489;28;20530;-59
2022/02/05 08:44:04;;;;;;;4.30;3.90;;;;;;;;;;5011631;28;20574;-59
2022/02/05 08:46:29;;;;;;;3.78;3.47;;;;;;;;;;5012778;28;20068;-59
2022/02/05 08:48:55;;;;;;;4.07;3.72;;;;;;;;;;5016223;28;20630;-59
2022/02/05 08:51:21;;;;;;;4.30;3.90;;;;;;;;;;5016768;28;20037;-59
2022/02/05 08:53:46;;;;;;;4.32;3.92;;;;;;;;;;5017018;28;20030;-59
2022/02/05 08:56:12;;;;;;;4.10;3.80;;;;;;;;;;5020006;28;20061;-61
2022/02/05 08:58:37;;;;;;;9.00;4.40;;;;;;;;;;5019186;28;20441;-62
2022/02/05 09:01:20;;;;;;;4.78;4.38;;;;;;;;;;5019958;28;20025;-62
2022/02/05 09:06:11;;;;;;;4.30;3.90;;;;;;;;;;5017557;28;20034;-62
2022/02/05 09:08:44;;;;;;;4.78;4.32;;;;;;;;;;5020734;28;20435;-62
2022/02/05 09:11:29;;;;;;;5.10;4.70;;;;;;;;;;5019645;28;20044;-62
2022/02/05 09:14:11;;;;;;;4.45;4.05;;;;;;;;;;5020168;28;20029;-61
2022/02/05 09:16:37;;;;;;;4.78;4.38;;;;;;;;;;5017549;28;20471;-61
2022/02/05 09:19:03;;;;;;;4.25;3.90;;;;;;;;;;5019876;28;20693;-61
2022/02/05 09:21:30;;;;;;;4.80;4.40;;;;;;;;;;5019128;28;20083;-62
2022/02/05 09:23:58;;;;;;;4.25;3.85;;;;;;;;;;5021716;28;20049;-62
2022/02/05 09:26:25;;;;;;;5.47;5.07;;;;;;;;;;5014908;28;20447;-62
2022/02/05 09:28:52;;;;;;;11.20;3.90;;;;;;;;;;5020872;28;20041;-62
2022/02/05 09:31:25;;;;;;;3.92;3.63;;;;;;;;;;5018751;28;20037;-60
2022/02/05 09:33:50;;;;;;;4.10;3.70;;;;;;;;;;5018734;28;20033;-61
2022/02/05 09:36:16;;;;;;;4.70;4.28;;;;;;;;;;5021195;28;20038;-61
2022/02/05 09:38:41;;;;;;;9.48;5.00;;;;;;;;;;5017918;28;20033;-63
2022/02/05 09:41:06;;;;;;;4.88;4.47;;;;;;;;;;5014662;28;20151;-62
2022/02/05 09:43:32;;;;;;;3.92;3.63;;;;;;;;;;5019549;28;20094;-63
2022/02/05 09:45:57;;;;;;;4.47;3.63;;;;;;;;;;5015139;28;20145;-61
2022/02/05 09:48:27;;;;;;;4.60;3.58;;;;;;;;;;5017802;28;20088;-62
2022/02/05 09:50:52;;;;;;;4.22;3.83;;;;;;;;;;5020408;28;20095;-62
2022/02/05 09:53:20;;;;;;;3.92;3.60;;;;;;;;;;5019314;28;20672;-62
2022/02/05 09:55:48;;;;;;;3.88;3.58;;;;;;;;;;5019652;28;20037;-61
2022/02/05 09:58:14;;;;;;;3.78;3.47;;;;;;;;;;5018506;28;20053;-62
2022/02/05 10:00:40;;;;;;;3.33;3.03;;;;;;;;;;5017455;28;20048;-63
2022/02/05 10:03:32;;;;;;;3.80;3.33;;;;;;;;;;5017716;28;20030;-62
2022/02/05 10:06:18;;;;;;;4.15;3.45;;;;;;;;;;5016081;28;20037;-62
2022/02/05 10:08:46;;;;;;;8.70;3.83;;;;;;;;;;5016260;28;20435;-62
2022/02/05 10:11:12;;;;;;;3.78;3.47;;;;;;;;;;5015633;28;20029;-62
2022/02/05 10:13:38;;;;;;;4.05;3.65;;;;;;;;;;5018410;28;20430;-62
2022/02/05 10:16:04;;;;;;;3.20;2.90;;;;;;;;;;5018950;28;20033;-62
2022/02/05 10:18:32;;;;;;;3.65;3.22;;;;;;;;;;5015932;28;20116;-62
2022/02/05 10:21:01;;;;;;;7.53;5.10;;;;;;;;;;5019245;28;20798;-62
2022/02/05 10:23:29;;;;;;;3.70;3.40;;;;;;;;;;5016036;28;20459;-62
2022/02/05 10:25:55;;;;;;;3.45;3.15;;;;;;;;;;5015409;28;20543;-62
2022/02/05 10:28:21;;;;;;;4.97;4.45;;;;;;;;;;5015660;28;20124;-62
2022/02/05 10:30:51;;;;;;;6.50;3.55;;;;;;;;;;5013592;28;20029;-62
2022/02/05 10:36:00;;;;;;;4.15;3.45;;;;;;;;;;5019878;28;20117;-62
2022/02/05 10:43:48;;;;;;;3.72;3.42;;;;;;;;;;5021407;28;20121;-61
2022/02/05 10:46:13;;;;;;;3.42;3.13;;;;;;;;;;5016673;28;20124;-60
2022/02/05 10:48:42;;;;;;;3.60;3.30;;;;;;;;;;5020267;28;20092;-61
2022/02/05 10:51:07;;;;;;;3.42;3.13;;;;;;;;;;5019032;28;20029;-63
2022/02/05 10:53:38;;;;;;;5.85;3.88;;;;;;;;;;5028956;28;20037;-59
2022/02/05 11:06:58;;;;;;;3.53;3.22;;;;;;;;;;5021144;28;20530;-60
2022/02/05 11:09:24;;;;;;;3.97;3.58;;;;;;;;;;5018278;28;20387;-62
2022/02/05 11:19:54;;;;;;;3.70;3.35;;;;;;;;;;5019423;28;20064;-63
2022/02/05 11:22:20;;;;;;;3.40;3.10;;;;;;;;;;5019340;28;20057;-63
2022/02/05 11:24:48;;;;;;;3.15;2.85;;;;;;;;;;5019498;28;20616;-62
2022/02/05 11:27:14;;;;;;;3.53;3.22;;;;;;;;;;5021716;28;20056;-62
2022/02/05 11:29:39;;;;;;;3.80;3.50;;;;;;;;;;5024122;28;20120;-61
2022/02/05 11:32:16;;;;;;;3.50;3.20;;;;;;;;;;5018816;28;20057;-62
2022/02/05 11:34:50;;;;;;;3.58;3.28;;;;;;;;;;5017936;28;20042;-63
2022/02/05 11:37:16;;;;;;;3.35;3.05;;;;;;;;;;5013783;28;20037;-62
2022/02/05 11:39:48;;;;;;;3.97;3.47;;;;;;;;;;5017555;28;20040;-62
2022/02/05 11:42:27;;;;;;;3.55;3.25;;;;;;;;;;5015910;28;20049;-62
2022/02/05 11:44:55;;;;;;;4.13;3.83;;;;;;;;;;5012310;28;20049;-63
2022/02/05 11:47:20;;;;;;;8.38;3.55;;;;;;;;;;5010557;28;20471;-63
2022/02/05 11:49:52;;;;;;;4.25;3.85;;;;;;;;;;5018413;28;20040;-63
2022/02/05 11:52:35;;;;;;;4.22;3.90;;;;;;;;;;5018563;28;20037;-64
2022/02/05 11:55:11;;;;;;;3.60;3.30;;;;;;;;;;5018433;28;20038;-63
2022/02/05 11:57:43;;;;;;;5.30;4.80;;;;;;;;;;5017294;28;20375;-63
2022/02/05 12:00:11;;;;;;;3.83;3.53;;;;;;;;;;5019140;28;20081;-64
2022/02/05 12:02:43;;;;;;;5.40;3.97;;;;;;;;;;5020350;28;20041;-63
2022/02/05 12:05:20;;;;;;;3.70;3.40;;;;;;;;;;5020741;28;20107;-63
2022/02/05 12:08:03;;;;;;;3.63;3.33;;;;;;;;;;5017725;28;20030;-63
2022/02/05 12:10:41;;;;;;;7.95;4.90;;;;;;;;;;5020257;28;20053;-63
2022/02/05 12:13:24;;;;;;;11.80;4.22;;;;;;;;;;5013929;28;20037;-62
2022/02/05 12:15:59;;;;;;;4.38;3.97;;;;;;;;;;5020161;28;20051;-63
2022/02/05 12:18:27;;;;;;;3.88;3.58;;;;;;;;;;5019137;28;20056;-63
2022/02/05 12:21:08;;;;;;;4.40;3.97;;;;;;;;;;5019756;28;20067;-64
2022/02/05 12:26:08;;;;;;;4.03;3.72;;;;;;;;;;5019853;28;20040;-64
2022/02/05 12:28:35;;;;;;;4.60;4.20;;;;;;;;;;5018674;28;20029;-63
2022/02/05 12:31:03;;;;;;;4.38;3.97;;;;;;;;;;5018215;28;20029;-63
2022/02/05 12:33:46;;;;;;;4.20;3.90;;;;;;;;;;5019095;28;20036;-63
2022/02/05 12:36:13;;;;;;;3.85;3.55;;;;;;;;;;5019437;28;20489;-63
2022/02/05 12:38:42;;;;;;;4.10;3.70;;;;;;;;;;5016755;28;20407;-62
2022/02/05 12:41:10;;;;;;;4.45;4.05;;;;;;;;;;5017462;28;20034;-63
2022/02/05 12:43:55;;;;;;;5.05;4.65;;;;;;;;;;5014978;28;20574;-62
2022/02/05 12:46:32;;;;;;;4.63;4.22;;;;;;;;;;5020721;28;20038;-62
2022/02/05 12:49:02;;;;;;;5.13;4.63;;;;;;;;;;5016347;28;20483;-62
2022/02/05 12:51:28;;;;;;;4.33;3.60;;;;;;;;;;5019396;28;20038;-62
2022/02/05 12:54:05;;;;;;;3.50;3.20;;;;;;;;;;5018538;28;20489;-62
2022/02/05 12:56:38;;;;;;;4.15;3.85;;;;;;;;;;5019201;28;20555;-63
2022/02/05 12:59:10;;;;;;;3.88;3.55;;;;;;;;;;5020512;28;20032;-62
2022/02/05 13:01:37;;;;;;;;;;;;;;;;;;5019419;28;20352;-63
2022/02/05 13:04:16;;;;;;;6.10;4.38;;;;;;;;;;5018039;28;20469;-63
2022/02/05 13:06:42;;;;;;;3.40;3.10;;;;;;;;;;5019475;28;20069;-62
2022/02/05 13:09:22;;;;;;;4.07;3.78;;;;;;;;;;5017459;28;20042;-63
2022/02/05 13:12:00;;;;;;;4.03;3.70;;;;;;;;;;5015400;28;20121;-63
2022/02/05 13:14:34;;;;;;;3.63;3.33;;;;;;;;;;5018584;28;20036;-63
2022/02/05 13:17:00;;;;;;;4.15;3.75;;;;;;;;;;5016962;28;20041;-63
2022/02/05 13:19:28;;;;;;;4.40;4.00;;;;;;;;;;5017423;28;20379;-62
2022/02/05 13:25:32;;;;;;;6.80;3.83;;;;;;;;;;5021092;28;20041;-63
2022/02/05 13:36:03;;;;;;;3.72;3.42;;;;;;;;;;5018661;28;20037;-63
2022/02/05 13:38:33;;;;;;;3.60;3.30;;;;;;;;;;5018553;28;20119;-62
2022/02/05 13:41:04;;;;;;;3.78;3.47;;;;;;;;;;5019528;28;20079;-63
2022/02/05 13:43:41;;;;;;;3.45;3.15;;;;;;;;;;5024230;28;20095;-62
2022/02/05 13:46:17;;;;;;;3.50;3.20;;;;;;;;;;5022513;28;20048;-61
2022/02/05 13:48:42;;;;;;;5.07;4.68;;;;;;;;;;5022552;28;20581;-62
2022/02/05 13:51:09;;;;;;;4.20;3.83;;;;;;;;;;5019490;28;20033;-63
2022/02/05 13:53:46;;;;;;;3.95;3.40;;;;;;;;;;5022004;28;20379;-62
2022/02/05 13:56:12;;;;;;;4.22;3.92;;;;;;;;;;5028075;28;20034;-62
2022/02/05 13:58:38;;;;;;;4.13;3.83;;;;;;;;;;5022823;28;20040;-61
2022/02/05 14:01:04;;;;;;;4.30;3.88;;;;;;;;;;5021593;28;20045;-63
2022/02/05 14:03:32;;;;;;;3.67;3.38;;;;;;;;;;5021171;28;20040;-63
2022/02/05 14:06:02;;;;;;;5.28;3.88;;;;;;;;;;5021711;28;20112;-62
2022/02/05 14:08:30;;;;;;;4.57;3.88;;;;;;;;;;5019069;28;20038;-63
2022/02/05 14:10:58;;;;;;;4.00;3.70;;;;;;;;;;5020708;28;20490;-62
2022/02/05 14:13:23;;;;;;;4.90;3.83;;;;;;;;;;5020841;28;20044;-59
2022/02/05 14:15:56;;;;;;;4.30;3.90;;;;;;;;;;5021482;28;20033;-59
2022/02/05 14:18:22;;;;;;;6.45;4.30;;;;;;;;;;5020977;28;20041;-62
2022/02/05 14:21:02;;;;;;;4.35;3.95;;;;;;;;;;5021937;28;20497;-62
2022/02/05 14:23:32;;;;;;;3.95;3.63;;;;;;;;;;5021932;28;20037;-61
2022/02/05 14:26:10;;;;;;;4.22;3.83;;;;;;;;;;5022066;28;20049;-62
2022/02/05 14:28:47;;;;;;;4.00;3.70;;;;;;;;;;5023734;28;20022;-62
2022/02/05 14:41:23;;;;;;;5.10;4.68;;;;;;;;;;5021680;28;20061;-62
2022/02/05 14:43:49;;;;;;;5.03;4.57;;;;;;;;;;5018983;28;20045;-62
2022/02/05 14:46:14;;;;;;;4.53;4.13;;;;;;;;;;5018261;28;20041;-62
2022/02/05 14:48:39;;;;;;;5.22;4.72;;;;;;;;;;5021456;28;20042;-62
2022/02/05 14:51:07;;;;;;;4.00;3.70;;;;;;;;;;5020723;28;20063;-62
2022/02/05 14:53:32;;;;;;;4.65;4.25;;;;;;;;;;5020659;28;20329;-66
2022/02/05 14:55:58;;;;;;;3.50;3.20;;;;;;;;;;5017556;28;20045;-68
2022/02/05 14:58:23;;;;;;;4.30;3.90;;;;;;;;;;5023155;28;20048;-64
2022/02/05 15:00:49;;;;;;;15.13;4.38;;;;;;;;;;5019759;28;20044;-64
2022/02/05 15:03:18;;;;;;;4.40;3.90;;;;;;;;;;5017559;28;20511;-62
2022/02/05 15:05:46;;;;;;;6.53;4.55;;;;;;;;;;5018140;28;20029;-62
2022/02/05 15:08:12;;;;;;;5.05;4.65;;;;;;;;;;5018217;28;20041;-62
2022/02/05 15:10:37;;;;;;;4.32;3.92;;;;;;;;;;5020630;28;20641;-62
2022/02/05 15:13:03;;;;;;;3.72;3.42;;;;;;;;;;5020505;28;20105;-62
2022/02/05 15:15:30;;;;;;;3.80;3.40;;;;;;;;;;5020666;28;20033;-65
2022/02/05 15:17:55;;;;;;;4.10;3.80;;;;;;;;;;5020825;28;20025;-63
2022/02/05 15:20:21;;;;;;;4.43;4.03;;;;;;;;;;5017593;28;20052;-62
2022/02/05 15:22:49;;;;;;;4.25;3.85;;;;;;;;;;5021367;28;20033;-59
2022/02/05 15:25:15;;;;;;;3.90;3.60;;;;;;;;;;5019283;28;20038;-61
2022/02/05 15:27:41;;;;;;;6.97;4.75;;;;;;;;;;5020109;28;20071;-60
2022/02/05 15:30:08;;;;;;;4.22;3.92;;;;;;;;;;5019612;28;20069;-60
2022/02/05 15:32:34;;;;;;;4.85;4.45;;;;;;;;;;5018481;28;20434;-60
2022/02/05 15:35:00;;;;;;;4.10;3.70;;;;;;;;;;5020433;28;20083;-61
2022/02/05 15:37:26;;;;;;;5.03;4.57;;;;;;;;;;5018365;28;20411;-62
2022/02/05 15:45:11;;;;;;;4.63;4.22;;;;;;;;;;5021751;28;20593;-60
2022/02/05 15:47:37;;;;;;;4.05;3.65;;;;;;;;;;5019462;28;20033;-63
2022/02/05 15:50:03;;;;;;;5.45;4.03;;;;;;;;;;5018837;28;20606;-60
2022/02/05 15:52:29;;;;;;;14.05;4.70;;;;;;;;;;5017216;28;20121;-60
2022/02/05 15:54:56;;;;;;;4.15;3.85;;;;;;;;;;5018297;28;20097;-60
2022/02/05 15:57:34;;;;;;;4.38;3.97;;;;;;;;;;5019161;28;20168;-60
2022/02/05 16:00:07;;;;;;;4.35;3.95;;;;;;;;;;5020483;28;20356;-64
2022/02/05 16:02:33;;;;;;;3.80;3.50;;;;;;;;;;5018380;28;20431;-60
2022/02/05 16:04:58;;;;;;;4.40;4.00;;;;;;;;;;5020318;28;20061;-65
2022/02/05 16:07:23;;;;;;;6.28;4.13;;;;;;;;;;5019714;28;20053;-64
2022/02/05 16:09:49;;;;;;;5.22;4.38;;;;;;;;;;5018253;28;20127;-63
2022/02/05 16:12:15;;;;;;;5.70;5.13;;;;;;;;;;5017313;28;20033;-65
2022/02/05 16:14:40;;;;;;;3.58;3.28;;;;;;;;;;5019040;28;20040;-64
2022/02/05 16:17:06;;;;;;;4.00;3.63;;;;;;;;;;5020091;28;20033;-63
2022/02/05 16:19:32;;;;;;;6.32;4.63;;;;;;;;;;5018685;28;20037;-63
2022/02/05 16:21:58;;;;;;;3.95;3.65;;;;;;;;;;5015775;28;20708;-63
2022/02/05 16:24:23;;;;;;;3.95;3.65;;;;;;;;;;5018908;28;20421;-63
2022/02/05 16:26:50;;;;;;;3.63;3.33;;;;;;;;;;5017007;28;20095;-63
2022/02/05 16:29:16;;;;;;;4.00;3.70;;;;;;;;;;5019040;28;20546;-63
2022/02/05 16:31:48;;;;;;;8.70;3.65;;;;;;;;;;5016834;28;20132;-63
2022/02/05 16:34:17;;;;;;;4.38;3.97;;;;;;;;;;5021830;28;20103;-63
2022/02/05 16:36:47;;;;;;;3.80;3.40;;;;;;;;;;5019245;28;20025;-62
2022/02/05 16:39:18;;;;;;;3.80;3.50;;;;;;;;;;5018961;28;20044;-62
2022/02/05 16:41:44;;;;;;;4.28;3.90;;;;;;;;;;5019873;28;20036;-62
2022/02/05 16:44:09;;;;;;;5.70;3.35;;;;;;;;;;5018001;28;20030;-60
2022/02/05 16:46:39;;;;;;;4.40;3.55;;;;;;;;;;5018886;28;20042;-60
2022/02/05 16:49:06;;;;;;;9.02;4.70;;;;;;;;;;5017827;28;20021;-59
2022/02/05 16:51:32;;;;;;;3.95;3.55;;;;;;;;;;5019938;28;20080;-59
2022/02/05 16:53:58;;;;;;;3.60;3.30;;;;;;;;;;5018652;28;20049;-60
2022/02/05 16:56:23;;;;;;;3.50;3.20;;;;;;;;;;5016689;28;20629;-60
2022/02/05 16:58:49;;;;;;;4.35;3.95;;;;;;;;;;5022580;28;20025;-60
2022/02/05 17:01:14;;;;;;;3.88;3.53;;;;;;;;;;5018021;28;20069;-59
2022/02/05 17:03:40;;;;;;;4.90;3.67;;;;;;;;;;5017777;28;20038;-59
2022/02/05 17:06:06;;;;;;;3.55;3.25;;;;;;;;;;5017333;28;20540;-65
2022/02/05 17:08:34;;;;;;;4.55;3.75;;;;;;;;;;5019470;28;20460;-64
2022/02/05 17:11:01;;;;;;;4.20;3.70;;;;;;;;;;5019210;28;20149;-64
2022/02/05 17:13:28;;;;;;;3.50;3.20;;;;;;;;;;5020715;28;20120;-64
2022/02/05 17:15:55;;;;;;;3.38;3.08;;;;;;;;;;5018334;28;20072;-64
2022/02/05 17:18:25;;;;;;;3.85;3.55;;;;;;;;;;5022309;28;20048;-59
2022/02/05 17:20:53;;;;;;;4.00;3.55;;;;;;;;;;5018275;28;20367;-60
2022/02/05 17:23:23;;;;;;;4.57;4.18;;;;;;;;;;5020625;28;20356;-62
2022/02/05 17:25:48;;;;;;;4.07;3.78;;;;;;;;;;5021807;28;20029;-63
2022/02/05 17:28:14;;;;;;;4.15;3.83;;;;;;;;;;5021645;28;20470;-64
2022/02/05 17:30:39;;;;;;;4.05;3.65;;;;;;;;;;5022568;28;20034;-64
2022/02/05 17:33:08;;;;;;;5.93;3.63;;;;;;;;;;5020348;28;20044;-64
2022/02/05 17:35:39;;;;;;;3.65;3.25;;;;;;;;;;5022511;28;20099;-65
2022/02/05 17:38:05;;;;;;;3.85;3.55;;;;;;;;;;5024979;28;20029;-65
2022/02/05 17:40:31;;;;;;;4.30;3.90;;;;;;;;;;5021525;28;20861;-63
2022/02/05 17:42:57;;;;;;;4.35;3.95;;;;;;;;;;5020148;28;20121;-64
2022/02/05 17:45:23;;;;;;;6.20;5.28;;;;;;;;;;5023338;28;20851;-66
2022/02/05 17:47:48;;;;;;;5.93;4.40;;;;;;;;;;5020914;28;20037;-65
2022/02/05 17:50:14;;;;;;;4.15;3.75;;;;;;;;;;5021666;28;20037;-65